CSN674 EGLL-ZBAD
Flight info
| Callsign | CSN674 |
|---|---|
| Flight time | N/A |
| Altitude | 37000 |
| Route | BPK DCT 5147N00012E 5147N00015E 5149N00039E 5152N00051E 5218N00239E 5223N00307E 5224N00310E DCT 5449N00958E 5710N01956E 5741N02159E 5753N02247E 5811N02412E/N0487F390 5844N02709E 5848N02723E/K0902F390 5909N02849E 5941N03110E 5947N03201E 5949N03220E 5956N03311E 5957N03519E 6007N03644E 6015N03813E 6029N04059E 6034N04207E 6040N04349E 6043N04506E 6044N04527E 6046N04619E 6047N04638E 6047N04650E 6048N04719E 6049N04823E 6049N04954E 6049N05117E 6047N05337E 6043N05542E 6038N05728E 6018N06206E 6012N06308E 6008N06355E 6007N06450E 6002N06639E 5955N06821E 5949N06936E 5905N07401E 5835N07631E 5744N07943E 5700N08204E 5557N08534E/K0902F410 5547N08603E 5510N08748E 5449N08844E 5345N09123E 5251N09342E 5100N09752E/K0893S1250 5011N09953E 5000N10018E 4912N10206E 4835N10321E 4748N10460E 4733N10529E 4650N10650E 4642N10704E 4545N10844E 4454N11008E 4341N11154E 4332N11202E 4325N11208E 4258N11225E 4151N11309E/K0913S1220 4055N11306E 4029N11305E 4021N11305E/K0907S1250 4020N11313E 4017N11405E DCT ELAPU ELAPU6M |
| Aircraft | A359/H-SDE2E3GHIJ3J4J5LM1ORWXY/LB1D1 |
Departure
| Time | 2026-05-06 23:10 |
|---|---|
| Airport | London Heathrow Airport (EGLL) |
Arrival
| Time | N/A |
|---|---|
| Airport | Beijing Daxing International Airport (ZBAD) |
| Time | Latitude | Longitude | Altitude | Speed | Heading |
|---|---|---|---|---|---|
| 2026-05-06 22:08 | 51.45909 | -0.45031 | 92 ft | 0 kts | 131° |
| 2026-05-06 22:55 | 51.45910 | -0.45034 | 92 ft | 2 kts | 131° |
| 2026-05-06 22:55 | 51.45928 | -0.45065 | 93 ft | 4 kts | 131° |
| 2026-05-06 22:55 | 51.45943 | -0.45092 | 94 ft | 2 kts | 131° |
| 2026-05-06 22:55 | 51.45956 | -0.45117 | 93 ft | 4 kts | 131° |
| 2026-05-06 22:56 | 51.45972 | -0.45143 | 92 ft | 4 kts | 56° |
| 2026-05-06 22:56 | 51.45956 | -0.45167 | 93 ft | 4 kts | 39° |
| 2026-05-06 22:56 | 51.45935 | -0.45194 | 91 ft | 4 kts | 40° |
| 2026-05-06 22:56 | 51.45919 | -0.45217 | 88 ft | 4 kts | 42° |
| 2026-05-06 22:57 | 51.45899 | -0.45246 | 93 ft | 4 kts | 42° |
| 2026-05-06 22:57 | 51.45895 | -0.45253 | 91 ft | 0 kts | 42° |
| 2026-05-06 22:59 | 51.45895 | -0.45252 | 91 ft | 0 kts | 42° |
| 2026-05-06 22:59 | 51.45911 | -0.45230 | 94 ft | 7 kts | 40° |
| 2026-05-06 22:59 | 51.46002 | -0.45251 | 96 ft | 16 kts | 317° |
| 2026-05-06 23:00 | 51.46092 | -0.45350 | 97 ft | 16 kts | 324° |
| 2026-05-06 23:00 | 51.46180 | -0.45446 | 96 ft | 15 kts | 326° |
| 2026-05-06 23:00 | 51.46294 | -0.45583 | 97 ft | 25 kts | 308° |
| 2026-05-06 23:00 | 51.46323 | -0.45845 | 92 ft | 24 kts | 270° |
| 2026-05-06 23:01 | 51.46321 | -0.46104 | 96 ft | 23 kts | 270° |
| 2026-05-06 23:01 | 51.46320 | -0.46391 | 95 ft | 37 kts | 278° |
| 2026-05-06 23:01 | 51.46319 | -0.46833 | 96 ft | 39 kts | 267° |
| 2026-05-06 23:01 | 51.46321 | -0.47261 | 96 ft | 37 kts | 272° |
| 2026-05-06 23:02 | 51.46326 | -0.47656 | 100 ft | 35 kts | 251° |
| 2026-05-06 23:02 | 51.46251 | -0.48000 | 96 ft | 31 kts | 269° |
| 2026-05-06 23:02 | 51.46250 | -0.48379 | 91 ft | 35 kts | 269° |
| 2026-05-06 23:02 | 51.46249 | -0.48464 | 92 ft | 4 kts | 269° |
| 2026-05-06 23:03 | 51.46258 | -0.48592 | 96 ft | 5 kts | 285° |
| 2026-05-06 23:03 | 51.46258 | -0.48593 | 96 ft | 0 kts | 285° |
| 2026-05-06 23:04 | 51.46262 | -0.48608 | 96 ft | 10 kts | 292° |
| 2026-05-06 23:04 | 51.46296 | -0.48687 | 94 ft | 0 kts | 316° |
| 2026-05-06 23:06 | 51.46341 | -0.48731 | 96 ft | 12 kts | 342° |
| 2026-05-06 23:06 | 51.46428 | -0.48744 | 92 ft | 12 kts | 11° |
| 2026-05-06 23:06 | 51.46477 | -0.48645 | 92 ft | 12 kts | 78° |
| 2026-05-06 23:06 | 51.46480 | -0.48577 | 93 ft | 0 kts | 87° |
| 2026-05-06 23:09 | 51.46480 | -0.48553 | 94 ft | 17 kts | 90° |
| 2026-05-06 23:09 | 51.46482 | -0.48001 | 96 ft | 80 kts | 89° |
| 2026-05-06 23:09 | 51.46483 | -0.46811 | 99 ft | 131 kts | 89° |
| 2026-05-06 23:10 | 51.46479 | -0.45100 | 170 ft | 169 kts | 90° |
| 2026-05-06 23:10 | 51.46536 | -0.43163 | 733 ft | 169 kts | 76° |
| 2026-05-06 23:10 | 51.47032 | -0.41538 | 1413 ft | 164 kts | 52° |
| 2026-05-06 23:10 | 51.47785 | -0.40027 | 1697 ft | 184 kts | 49° |
| 2026-05-06 23:11 | 51.48666 | -0.38366 | 1941 ft | 207 kts | 50° |
| 2026-05-06 23:11 | 51.49638 | -0.36500 | 2287 ft | 227 kts | 50° |
| 2026-05-06 23:11 | 51.50672 | -0.34490 | 2801 ft | 238 kts | 50° |
| 2026-05-06 23:11 | 51.51667 | -0.32309 | 3426 ft | 245 kts | 61° |
| 2026-05-06 23:12 | 51.52340 | -0.29768 | 4066 ft | 250 kts | 68° |
| 2026-05-06 23:12 | 51.52916 | -0.27100 | 4698 ft | 255 kts | 69° |
| 2026-05-06 23:12 | 51.53509 | -0.24370 | 5301 ft | 261 kts | 67° |
| 2026-05-06 23:12 | 51.54413 | -0.21838 | 5777 ft | 263 kts | 46° |
| 2026-05-06 23:13 | 51.55871 | -0.20105 | 5932 ft | 261 kts | 24° |
| 2026-05-06 23:13 | 51.57549 | -0.18910 | 5956 ft | 264 kts | 20° |
| 2026-05-06 23:13 | 51.59270 | -0.17864 | 5962 ft | 263 kts | 15° |
| 2026-05-06 23:13 | 51.61172 | -0.16975 | 5961 ft | 262 kts | 13° |
| 2026-05-06 23:14 | 51.62807 | -0.16247 | 5961 ft | 262 kts | 13° |
| 2026-05-06 23:14 | 51.64561 | -0.15458 | 5963 ft | 262 kts | 13° |
| 2026-05-06 23:14 | 51.66321 | -0.14657 | 5967 ft | 262 kts | 14° |
| 2026-05-06 23:14 | 51.68176 | -0.13808 | 5997 ft | 261 kts | 14° |
| 2026-05-06 23:15 | 51.69853 | -0.13039 | 6019 ft | 263 kts | 13° |
| 2026-05-06 23:15 | 51.71611 | -0.12229 | 6021 ft | 262 kts | 13° |
| 2026-05-06 23:15 | 51.73328 | -0.11249 | 6014 ft | 264 kts | 24° |
| 2026-05-06 23:15 | 51.74739 | -0.09393 | 6013 ft | 269 kts | 51° |
| 2026-05-06 23:16 | 51.75575 | -0.06627 | 6217 ft | 275 kts | 69° |
| 2026-05-06 23:16 | 51.76086 | -0.03645 | 6703 ft | 281 kts | 75° |
| 2026-05-06 23:16 | 51.76470 | -0.00511 | 7546 ft | 280 kts | 77° |
| 2026-05-06 23:16 | 51.76792 | 0.02561 | 8298 ft | 281 kts | 78° |
| 2026-05-06 23:17 | 51.77119 | 0.05691 | 9068 ft | 284 kts | 78° |
| 2026-05-06 23:17 | 51.77466 | 0.08853 | 9875 ft | 285 kts | 78° |
| 2026-05-06 23:17 | 51.77833 | 0.12029 | 10408 ft | 295 kts | 77° |
| 2026-05-06 23:17 | 51.78241 | 0.15389 | 10693 ft | 314 kts | 77° |
| 2026-05-06 23:18 | 51.78685 | 0.18951 | 10969 ft | 332 kts | 77° |
| 2026-05-06 23:18 | 51.79155 | 0.22710 | 11271 ft | 349 kts | 76° |
| 2026-05-06 23:18 | 51.79646 | 0.26645 | 11559 ft | 365 kts | 76° |
| 2026-05-06 23:18 | 51.80152 | 0.30736 | 12006 ft | 375 kts | 76° |
| 2026-05-06 23:19 | 51.80656 | 0.34851 | 12561 ft | 382 kts | 77° |
| 2026-05-06 23:19 | 51.81176 | 0.39112 | 13116 ft | 388 kts | 78° |
| 2026-05-06 23:19 | 51.81698 | 0.43410 | 13735 ft | 393 kts | 77° |
| 2026-05-06 23:19 | 51.82228 | 0.47784 | 14261 ft | 398 kts | 77° |
| 2026-05-06 23:20 | 51.82760 | 0.52186 | 14868 ft | 400 kts | 78° |
| 2026-05-06 23:20 | 51.83294 | 0.56627 | 15400 ft | 405 kts | 78° |
| 2026-05-06 23:20 | 51.83835 | 0.61127 | 15997 ft | 407 kts | 78° |
| 2026-05-06 23:20 | 51.84369 | 0.65580 | 16539 ft | 411 kts | 78° |
| 2026-05-06 23:21 | 51.84914 | 0.70148 | 17084 ft | 415 kts | 78° |
| 2026-05-06 23:21 | 51.85461 | 0.74745 | 17703 ft | 417 kts | 79° |
| 2026-05-06 23:21 | 51.86012 | 0.79388 | 18211 ft | 422 kts | 79° |
| 2026-05-06 23:21 | 51.86670 | 0.84027 | 18784 ft | 424 kts | 73° |
| 2026-05-06 23:22 | 51.87612 | 0.88583 | 19267 ft | 429 kts | 70° |
| 2026-05-06 23:22 | 51.88663 | 0.93116 | 19825 ft | 431 kts | 68° |
| 2026-05-06 23:22 | 51.89773 | 0.97644 | 20343 ft | 435 kts | 67° |
| 2026-05-06 23:22 | 51.90914 | 1.02183 | 20998 ft | 435 kts | 67° |
| 2026-05-06 23:23 | 51.91673 | 1.05185 | 21380 ft | 436 kts | 67° |
| 2026-05-06 23:23 | 51.93207 | 1.11270 | 21990 ft | 442 kts | 67° |
| 2026-05-06 23:23 | 51.94369 | 1.15913 | 22533 ft | 446 kts | 67° |
| 2026-05-06 23:23 | 51.95533 | 1.20597 | 23014 ft | 449 kts | 68° |
| 2026-05-06 23:24 | 51.96698 | 1.25315 | 23562 ft | 452 kts | 68° |
| 2026-05-06 23:24 | 51.97474 | 1.28466 | 23808 ft | 455 kts | 68° |
| 2026-05-06 23:24 | 51.98648 | 1.33247 | 24299 ft | 457 kts | 68° |
| 2026-05-06 23:24 | 51.99831 | 1.38079 | 24677 ft | 462 kts | 68° |
| 2026-05-06 23:25 | 52.01017 | 1.42930 | 25160 ft | 463 kts | 68° |
| 2026-05-06 23:25 | 52.02207 | 1.47809 | 25541 ft | 467 kts | 69° |
| 2026-05-06 23:25 | 52.03400 | 1.52711 | 26100 ft | 467 kts | 69° |
| 2026-05-06 23:25 | 52.04597 | 1.57642 | 26401 ft | 472 kts | 69° |
| 2026-05-06 23:26 | 52.05804 | 1.62626 | 26826 ft | 475 kts | 69° |
| 2026-05-06 23:26 | 52.07015 | 1.67635 | 27203 ft | 478 kts | 69° |
| 2026-05-06 23:26 | 52.08234 | 1.72684 | 27684 ft | 480 kts | 69° |
| 2026-05-06 23:26 | 52.09454 | 1.77754 | 28026 ft | 483 kts | 69° |
| 2026-05-06 23:27 | 52.10678 | 1.82851 | 28462 ft | 485 kts | 70° |
| 2026-05-06 23:27 | 52.11912 | 1.88000 | 28841 ft | 488 kts | 70° |
| 2026-05-06 23:27 | 52.13143 | 1.93150 | 29202 ft | 490 kts | 70° |
| 2026-05-06 23:27 | 52.14384 | 1.98355 | 29560 ft | 493 kts | 70° |
| 2026-05-06 23:28 | 52.15623 | 2.03564 | 29967 ft | 494 kts | 70° |
| 2026-05-06 23:28 | 52.16866 | 2.08803 | 30240 ft | 496 kts | 70° |
| 2026-05-06 23:28 | 52.18097 | 2.14003 | 30505 ft | 499 kts | 70° |
| 2026-05-06 23:28 | 52.19342 | 2.19277 | 30874 ft | 498 kts | 70° |
| 2026-05-06 23:29 | 52.20586 | 2.24553 | 31272 ft | 497 kts | 71° |
| 2026-05-06 23:29 | 52.21823 | 2.29817 | 31637 ft | 496 kts | 71° |
| 2026-05-06 23:29 | 52.23056 | 2.35077 | 31995 ft | 496 kts | 71° |
| 2026-05-06 23:29 | 52.24286 | 2.40338 | 32331 ft | 495 kts | 71° |
| 2026-05-06 23:30 | 52.25514 | 2.45599 | 32675 ft | 495 kts | 71° |
| 2026-05-06 23:30 | 52.26735 | 2.50848 | 32952 ft | 496 kts | 71° |
| 2026-05-06 23:30 | 52.27943 | 2.56054 | 33180 ft | 497 kts | 71° |
| 2026-05-06 23:30 | 52.29165 | 2.61333 | 33512 ft | 496 kts | 71° |
| 2026-05-06 23:31 | 52.30383 | 2.66609 | 33877 ft | 495 kts | 71° |
| 2026-05-06 23:31 | 52.31519 | 2.71919 | 34148 ft | 494 kts | 74° |
| 2026-05-06 23:31 | 52.32559 | 2.77266 | 34370 ft | 493 kts | 75° |
| 2026-05-06 23:31 | 52.33563 | 2.82638 | 34585 ft | 493 kts | 75° |
| 2026-05-06 23:32 | 52.34560 | 2.88008 | 34801 ft | 494 kts | 75° |
| 2026-05-06 23:32 | 52.35523 | 2.93156 | 34998 ft | 494 kts | 75° |
| 2026-05-06 23:32 | 52.36482 | 2.98229 | 35176 ft | 494 kts | 75° |
| 2026-05-06 23:32 | 52.37445 | 3.03281 | 35445 ft | 492 kts | 74° |
| 2026-05-06 23:33 | 52.38458 | 3.08573 | 35657 ft | 492 kts | 74° |
| 2026-05-06 23:33 | 52.39575 | 3.13883 | 35785 ft | 495 kts | 69° |
| 2026-05-06 23:33 | 52.41073 | 3.18915 | 35939 ft | 497 kts | 60° |
| 2026-05-06 23:33 | 52.42868 | 3.23732 | 36102 ft | 498 kts | 59° |
| 2026-05-06 23:34 | 52.44742 | 3.28505 | 36268 ft | 498 kts | 58° |
| 2026-05-06 23:34 | 52.46651 | 3.33244 | 36447 ft | 498 kts | 57° |
| 2026-05-06 23:34 | 52.48579 | 3.37986 | 36606 ft | 499 kts | 57° |
| 2026-05-06 23:35 | 52.52442 | 3.47506 | 36810 ft | 502 kts | 57° |
| 2026-05-06 23:35 | 52.54368 | 3.52287 | 37027 ft | 501 kts | 57° |
| 2026-05-06 23:35 | 52.56263 | 3.57013 | 37207 ft | 500 kts | 57° |
| 2026-05-06 23:35 | 52.58172 | 3.61793 | 37348 ft | 500 kts | 57° |
| 2026-05-06 23:36 | 52.60080 | 3.66584 | 37481 ft | 501 kts | 57° |
| 2026-05-06 23:36 | 52.61986 | 3.71379 | 37622 ft | 501 kts | 58° |
| 2026-05-06 23:36 | 52.63894 | 3.76191 | 37749 ft | 501 kts | 57° |
| 2026-05-06 23:36 | 52.65796 | 3.80993 | 37880 ft | 501 kts | 57° |
| 2026-05-06 23:37 | 52.67701 | 3.85813 | 37998 ft | 502 kts | 57° |
| 2026-05-06 23:37 | 52.69603 | 3.90634 | 38126 ft | 502 kts | 57° |
| 2026-05-06 23:37 | 52.71505 | 3.95466 | 38213 ft | 503 kts | 57° |
| 2026-05-06 23:38 | 52.75315 | 4.05166 | 38411 ft | 503 kts | 58° |
| 2026-05-06 23:38 | 52.77213 | 4.10014 | 38574 ft | 502 kts | 58° |
| 2026-05-06 23:38 | 52.79108 | 4.14861 | 38660 ft | 502 kts | 58° |
| 2026-05-06 23:39 | 52.82900 | 4.24593 | 38794 ft | 503 kts | 58° |
| 2026-05-06 23:39 | 52.86684 | 4.34341 | 38909 ft | 504 kts | 58° |
| 2026-05-06 23:40 | 52.90480 | 4.44158 | 38917 ft | 508 kts | 58° |
| 2026-05-06 23:40 | 52.94263 | 4.53979 | 38914 ft | 509 kts | 58° |
| 2026-05-06 23:41 | 52.98076 | 4.63913 | 38914 ft | 510 kts | 58° |
| 2026-05-06 23:41 | 53.01882 | 4.73872 | 38912 ft | 510 kts | 58° |
| 2026-05-06 23:42 | 53.05685 | 4.83861 | 38911 ft | 510 kts | 58° |
| 2026-05-06 23:42 | 53.09446 | 4.93780 | 38915 ft | 510 kts | 58° |
| 2026-05-06 23:43 | 53.13226 | 5.03788 | 38912 ft | 510 kts | 58° |
| 2026-05-06 23:43 | 53.17001 | 5.13824 | 38909 ft | 511 kts | 58° |
| 2026-05-06 23:44 | 53.20775 | 5.23896 | 38913 ft | 512 kts | 58° |
| 2026-05-06 23:44 | 53.24520 | 5.33932 | 38914 ft | 512 kts | 58° |
| 2026-05-06 23:45 | 53.28282 | 5.44055 | 38915 ft | 512 kts | 58° |
| 2026-05-06 23:45 | 53.32037 | 5.54197 | 38920 ft | 512 kts | 58° |
| 2026-05-06 23:46 | 53.35778 | 5.64343 | 38911 ft | 512 kts | 58° |
| 2026-05-06 23:46 | 53.39509 | 5.74503 | 38913 ft | 511 kts | 59° |
| 2026-05-06 23:47 | 53.43204 | 5.84609 | 38911 ft | 511 kts | 59° |
| 2026-05-06 23:47 | 53.46905 | 5.94770 | 38905 ft | 511 kts | 59° |
| 2026-05-06 23:48 | 53.50606 | 6.04973 | 38900 ft | 511 kts | 59° |
| 2026-05-06 23:48 | 53.54294 | 6.15181 | 38898 ft | 511 kts | 59° |
| 2026-05-06 23:49 | 53.57976 | 6.25415 | 38898 ft | 511 kts | 59° |
| 2026-05-06 23:49 | 53.61649 | 6.35666 | 38897 ft | 512 kts | 59° |
| 2026-05-06 23:50 | 53.65324 | 6.45965 | 38893 ft | 513 kts | 59° |
| 2026-05-06 23:50 | 53.70803 | 6.61400 | 38901 ft | 512 kts | 60° |
| 2026-05-06 23:51 | 53.74457 | 6.71748 | 38897 ft | 512 kts | 60° |
| 2026-05-06 23:51 | 53.78098 | 6.82100 | 38898 ft | 512 kts | 60° |
| 2026-05-06 23:52 | 53.81731 | 6.92476 | 38899 ft | 513 kts | 60° |
| 2026-05-06 23:52 | 53.85361 | 7.02887 | 38901 ft | 514 kts | 60° |
| 2026-05-06 23:53 | 53.88987 | 7.13326 | 38899 ft | 514 kts | 60° |
| 2026-05-06 23:53 | 53.92601 | 7.23778 | 38894 ft | 514 kts | 60° |
| 2026-05-06 23:54 | 53.96165 | 7.34128 | 38903 ft | 514 kts | 60° |
| 2026-05-06 23:54 | 53.99742 | 7.44561 | 38897 ft | 514 kts | 60° |
| 2026-05-06 23:55 | 54.03342 | 7.55106 | 38908 ft | 514 kts | 60° |
| 2026-05-06 23:55 | 54.06929 | 7.65658 | 38900 ft | 515 kts | 60° |
| 2026-05-06 23:56 | 54.10514 | 7.76250 | 38909 ft | 515 kts | 60° |
| 2026-05-06 23:56 | 54.14063 | 7.86778 | 38906 ft | 515 kts | 60° |
| 2026-05-06 23:57 | 54.17627 | 7.97400 | 38898 ft | 515 kts | 61° |
| 2026-05-06 23:57 | 54.21181 | 8.08036 | 38910 ft | 516 kts | 61° |
| 2026-05-06 23:58 | 54.24731 | 8.18709 | 38907 ft | 516 kts | 61° |
| 2026-05-06 23:58 | 54.28278 | 8.29416 | 38912 ft | 518 kts | 61° |
| 2026-05-06 23:59 | 54.31823 | 8.40169 | 38900 ft | 518 kts | 61° |
| 2026-05-06 23:59 | 54.35356 | 8.50929 | 38909 ft | 518 kts | 61° |
| 2026-05-07 00:00 | 54.38859 | 8.61646 | 38900 ft | 518 kts | 61° |
| 2026-05-07 00:00 | 54.41805 | 8.70695 | 38907 ft | 518 kts | 62° |
| 2026-05-07 00:01 | 54.45885 | 8.83286 | 38907 ft | 519 kts | 61° |
| 2026-05-07 00:01 | 54.49394 | 8.94165 | 38902 ft | 520 kts | 62° |
| 2026-05-07 00:02 | 54.52891 | 9.05059 | 38906 ft | 520 kts | 62° |
| 2026-05-07 00:02 | 54.56380 | 9.15976 | 38905 ft | 520 kts | 62° |
| 2026-05-07 00:03 | 54.59842 | 9.26855 | 38905 ft | 520 kts | 62° |
| 2026-05-07 00:03 | 54.63314 | 9.37818 | 38911 ft | 520 kts | 62° |
| 2026-05-07 00:04 | 54.66778 | 9.48805 | 38914 ft | 521 kts | 62° |
| 2026-05-07 00:04 | 54.70223 | 9.59783 | 38912 ft | 523 kts | 62° |
| 2026-05-07 00:05 | 54.73682 | 9.70855 | 38913 ft | 523 kts | 62° |
| 2026-05-07 00:05 | 54.77132 | 9.81949 | 38912 ft | 522 kts | 62° |
| 2026-05-07 00:06 | 54.80544 | 9.92971 | 38920 ft | 522 kts | 62° |
| 2026-05-07 00:06 | 54.83928 | 10.04092 | 38923 ft | 522 kts | 63° |
| 2026-05-07 00:07 | 54.87186 | 10.15363 | 38938 ft | 523 kts | 64° |
| 2026-05-07 00:07 | 54.90438 | 10.26713 | 38929 ft | 525 kts | 64° |
| 2026-05-07 00:08 | 54.93698 | 10.38065 | 38927 ft | 525 kts | 64° |
| 2026-05-07 00:08 | 54.96959 | 10.49433 | 38927 ft | 524 kts | 64° |
| 2026-05-07 00:09 | 55.00208 | 10.60800 | 38923 ft | 524 kts | 64° |
| 2026-05-07 00:09 | 55.03446 | 10.72193 | 38928 ft | 524 kts | 64° |
| 2026-05-07 00:10 | 55.06655 | 10.83538 | 38927 ft | 525 kts | 64° |
| 2026-05-07 00:10 | 55.09884 | 10.95010 | 38935 ft | 526 kts | 64° |
| 2026-05-07 00:11 | 55.13101 | 11.06498 | 38930 ft | 526 kts | 64° |
| 2026-05-07 00:11 | 55.15769 | 11.16067 | 38931 ft | 527 kts | 64° |
| 2026-05-07 00:12 | 55.18980 | 11.27641 | 38933 ft | 527 kts | 64° |
| 2026-05-07 00:12 | 55.22151 | 11.39125 | 38931 ft | 527 kts | 64° |
| 2026-05-07 00:13 | 55.25334 | 11.50710 | 38940 ft | 527 kts | 64° |
| 2026-05-07 00:13 | 55.28508 | 11.62324 | 38930 ft | 528 kts | 64° |
| 2026-05-07 00:14 | 55.31675 | 11.73970 | 38931 ft | 529 kts | 64° |
| 2026-05-07 00:14 | 55.34834 | 11.85643 | 38931 ft | 529 kts | 65° |
| 2026-05-07 00:15 | 55.37987 | 11.97359 | 38933 ft | 529 kts | 65° |
| 2026-05-07 00:15 | 55.41107 | 12.09008 | 38929 ft | 529 kts | 65° |
| 2026-05-07 00:16 | 55.44232 | 12.20739 | 38930 ft | 529 kts | 65° |
| 2026-05-07 00:16 | 55.47345 | 12.32484 | 38912 ft | 529 kts | 65° |
| 2026-05-07 00:17 | 55.50450 | 12.44259 | 38932 ft | 529 kts | 65° |
| 2026-05-07 00:17 | 55.53539 | 12.56036 | 38931 ft | 529 kts | 65° |
| 2026-05-07 00:18 | 55.56615 | 12.67825 | 38938 ft | 529 kts | 65° |
| 2026-05-07 00:18 | 55.59666 | 12.79579 | 38938 ft | 528 kts | 65° |
| 2026-05-07 00:19 | 55.62721 | 12.91412 | 38954 ft | 528 kts | 65° |
| 2026-05-07 00:19 | 55.65778 | 13.03312 | 38932 ft | 530 kts | 65° |
| 2026-05-07 00:20 | 55.68804 | 13.15158 | 38921 ft | 531 kts | 65° |
| 2026-05-07 00:20 | 55.71832 | 13.27075 | 38930 ft | 531 kts | 66° |
| 2026-05-07 00:21 | 55.74857 | 13.39043 | 38928 ft | 531 kts | 66° |
| 2026-05-07 00:21 | 55.77864 | 13.51003 | 38933 ft | 531 kts | 66° |
| 2026-05-07 00:22 | 55.80863 | 13.62999 | 38922 ft | 531 kts | 66° |
| 2026-05-07 00:22 | 55.83850 | 13.75009 | 38934 ft | 532 kts | 66° |
| 2026-05-07 00:23 | 55.86834 | 13.87078 | 38939 ft | 532 kts | 66° |
| 2026-05-07 00:23 | 55.89804 | 13.99152 | 38932 ft | 532 kts | 66° |
| 2026-05-07 00:24 | 55.92769 | 14.11272 | 38935 ft | 532 kts | 66° |
| 2026-05-07 00:24 | 55.95717 | 14.23393 | 38932 ft | 532 kts | 66° |
| 2026-05-07 00:25 | 55.98636 | 14.35459 | 38929 ft | 533 kts | 66° |
| 2026-05-07 00:25 | 56.01565 | 14.47637 | 38941 ft | 533 kts | 66° |
| 2026-05-07 00:26 | 56.04488 | 14.59853 | 38934 ft | 533 kts | 66° |
| 2026-05-07 00:26 | 56.07378 | 14.72005 | 38930 ft | 533 kts | 66° |
| 2026-05-07 00:27 | 56.10269 | 14.84227 | 38930 ft | 533 kts | 66° |
| 2026-05-07 00:27 | 56.13155 | 14.96496 | 38931 ft | 533 kts | 67° |
| 2026-05-07 00:28 | 56.16024 | 15.08768 | 38932 ft | 533 kts | 67° |
| 2026-05-07 00:28 | 56.18886 | 15.21076 | 38945 ft | 533 kts | 67° |
| 2026-05-07 00:29 | 56.21712 | 15.33301 | 38932 ft | 534 kts | 67° |
| 2026-05-07 00:30 | 56.27382 | 15.58044 | 38917 ft | 534 kts | 67° |
| 2026-05-07 00:30 | 56.30191 | 15.70411 | 38922 ft | 534 kts | 67° |
| 2026-05-07 00:31 | 56.32991 | 15.82811 | 38934 ft | 534 kts | 67° |
| 2026-05-07 00:31 | 56.35759 | 15.95139 | 38970 ft | 534 kts | 67° |
| 2026-05-07 00:32 | 56.38538 | 16.07591 | 38944 ft | 535 kts | 68° |
| 2026-05-07 00:32 | 56.41315 | 16.20106 | 38948 ft | 536 kts | 68° |
| 2026-05-07 00:33 | 56.44073 | 16.32615 | 38955 ft | 536 kts | 68° |
| 2026-05-07 00:33 | 56.46803 | 16.45068 | 38953 ft | 535 kts | 68° |
| 2026-05-07 00:34 | 56.49536 | 16.57611 | 38958 ft | 535 kts | 68° |
| 2026-05-07 00:34 | 56.52252 | 16.70153 | 38953 ft | 535 kts | 68° |
| 2026-05-07 00:35 | 56.54957 | 16.82720 | 38949 ft | 536 kts | 68° |
| 2026-05-07 00:35 | 56.57653 | 16.95320 | 38952 ft | 536 kts | 68° |
| 2026-05-07 00:36 | 56.60342 | 17.07967 | 38952 ft | 536 kts | 68° |
| 2026-05-07 00:36 | 56.63008 | 17.20585 | 38959 ft | 537 kts | 68° |
| 2026-05-07 00:37 | 56.65642 | 17.33128 | 38957 ft | 537 kts | 69° |
| 2026-05-07 00:37 | 56.68292 | 17.45825 | 38957 ft | 537 kts | 69° |
| 2026-05-07 00:38 | 56.70925 | 17.58523 | 38959 ft | 537 kts | 69° |
| 2026-05-07 00:38 | 56.73555 | 17.71284 | 38958 ft | 538 kts | 69° |
| 2026-05-07 00:39 | 56.76172 | 17.84065 | 38959 ft | 538 kts | 69° |
| 2026-05-07 00:39 | 56.78772 | 17.96844 | 38963 ft | 538 kts | 69° |
| 2026-05-07 00:40 | 56.80929 | 18.07506 | 38963 ft | 538 kts | 69° |